Time;durP1;ratioP1;P1;durP2;ratioP2;P2;SDS_P1;SDS_P2;PMS_P1;PMS_P2;Temp;Humidity;BMP_temperature;BMP_pressure;BME280_temperature;BME280_humidity;BME280_pressure;Samples;Min_cycle;Max_cycle;Signal;HPM_P1;HPM_P2
2022/06/07 00:01:10;;;;;;;12.43;5.10;;;;;;;21.73;60.40;99469.38;5012686;28;20030;-88
2022/06/07 00:03:36;;;;;;;6.22;4.15;;;;;;;21.86;60.48;99499.34;5012719;28;20117;-88
2022/06/07 00:06:01;;;;;;;10.82;5.05;;;;;;;21.06;60.44;99371.06;5012350;28;20057;-88
2022/06/07 00:08:28;;;;;;;13.45;4.90;;;;;;;21.20;60.46;99411.78;5011349;28;20419;-87
2022/06/07 00:10:53;;;;;;;9.48;4.95;;;;;;;21.68;60.64;99490.81;5027898;28;20018;-87
2022/06/07 00:13:19;;;;;;;9.77;4.90;;;;;;;21.74;60.70;99495.19;5011225;28;20032;-87
2022/06/07 00:15:44;;;;;;;5.50;4.88;;;;;;;21.75;60.61;99486.88;5027722;28;20069;-87
2022/06/07 00:18:11;;;;;;;8.50;4.97;;;;;;;21.74;60.79;99489.81;5012379;28;20030;-87
2022/06/07 00:20:38;;;;;;;10.50;4.88;;;;;;;21.24;60.34;99415.59;5011404;28;20061;-88
2022/06/07 00:23:10;;;;;;;9.20;5.50;;;;;;;21.12;60.30;99404.16;5027995;28;20034;-87
2022/06/07 00:25:36;;;;;;;11.38;6.25;;;;;;;20.85;60.53;99375.38;5012805;28;20029;-88
2022/06/07 00:28:02;;;;;;;11.52;5.30;;;;;;;21.48;60.81;99477.94;5028015;28;20087;-87
2022/06/07 00:30:30;;;;;;;9.20;6.00;;;;;;;21.23;60.62;99456.94;5012575;28;20064;-88
2022/06/07 00:32:56;;;;;;;7.40;6.18;;;;;;;20.71;60.77;99375.97;5027723;28;20041;-87
2022/06/07 00:35:21;;;;;;;9.68;5.97;;;;;;;21.08;60.88;99419.13;5012559;28;20040;-87
2022/06/07 00:37:47;;;;;;;13.65;7.50;;;;;;;20.50;60.87;99353.41;5012409;28;20415;-87
2022/06/07 00:40:13;;;;;;;7.50;6.15;;;;;;;20.77;60.89;99391.88;5027708;28;20030;-87
2022/06/07 00:42:38;;;;;;;9.93;5.93;;;;;;;20.56;60.96;99347.06;5012270;28;20136;-88
2022/06/07 00:45:05;;;;;;;9.85;5.63;;;;;;;20.92;61.02;99423.50;5012723;28;20100;-87
2022/06/07 00:47:31;;;;;;;9.85;5.90;;;;;;;21.32;61.20;99485.00;5027911;28;20116;-87
2022/06/07 00:50:14;;;;;;;8.98;5.78;;;;;;;21.09;61.15;99434.19;5012876;28;20104;-87
2022/06/07 00:52:39;;;;;;;13.10;6.85;;;;;;;21.23;61.01;99451.56;5014609;28;20117;-87
2022/06/07 00:55:07;;;;;;;10.40;5.90;;;;;;;21.19;60.88;99439.69;5016504;28;20085;-87
2022/06/07 00:57:34;;;;;;;7.47;5.68;;;;;;;20.84;61.03;99408.63;5017307;28;20030;-88
2022/06/07 00:59:59;;;;;;;9.23;6.05;;;;;;;21.48;60.92;99492.19;5012668;28;20079;-87
2022/06/07 01:02:25;;;;;;;9.40;5.20;;;;;;;20.82;60.83;99383.13;5027188;28;20033;-87
2022/06/07 01:04:50;;;;;;;11.75;5.75;;;;;;;21.42;60.76;99498.56;5027016;28;20018;-88
2022/06/07 01:12:44;;;;;;;7.53;5.22;;;;;;;21.18;60.56;99435.38;5011549;28;20064;-87
2022/06/07 01:15:10;;;;;;;7.43;5.63;;;;;;;21.47;60.49;99490.56;5026979;28;20029;-88
2022/06/07 01:17:36;;;;;;;14.90;5.63;;;;;;;20.73;60.56;99374.66;5010623;28;20030;-87
2022/06/07 01:20:04;;;;;;;7.78;5.72;;;;;;;21.42;60.75;99489.69;5011883;28;20480;-87
2022/06/07 01:22:29;;;;;;;8.93;5.53;;;;;;;21.18;60.76;99452.28;5027452;28;20033;-88
2022/06/07 01:24:55;;;;;;;13.52;5.82;;;;;;;21.22;60.75;99479.47;5027600;28;20414;-87
2022/06/07 01:27:21;;;;;;;11.27;5.97;;;;;;;20.83;60.69;99415.06;5010848;28;20029;-87
2022/06/07 01:29:47;;;;;;;11.48;5.85;;;;;;;21.05;60.73;99431.19;5031378;28;20187;-86
2022/06/07 01:32:13;;;;;;;10.32;5.72;;;;;;;20.86;60.91;99394.97;5017599;28;20475;-87
2022/06/07 01:34:41;;;;;;;12.18;5.97;;;;;;;21.00;60.89;99420.38;5016012;28;20506;-88
2022/06/07 01:37:08;;;;;;;9.23;5.47;;;;;;;20.70;60.99;99385.88;5010088;28;20461;-87
2022/06/07 01:42:17;;;;;;;12.05;6.55;;;;;;;21.11;61.23;99478.50;5011429;28;20041;-87
2022/06/07 01:44:47;;;;;;;11.38;6.45;;;;;;;21.13;61.26;99476.41;5010718;28;20030;-86
2022/06/07 01:47:15;;;;;;;8.32;5.78;;;;;;;21.05;61.32;99479.50;5011416;28;20538;-87
2022/06/07 01:49:41;;;;;;;9.93;6.70;;;;;;;20.62;61.49;99437.28;5011680;28;20030;-87
2022/06/07 01:52:09;;;;;;;8.40;6.13;;;;;;;20.05;61.50;99359.66;5030579;28;20033;-87
2022/06/07 01:54:34;;;;;;;12.52;6.43;;;;;;;20.94;61.53;99483.94;5014990;28;20050;-88
2022/06/07 01:57:00;;;;;;;12.95;6.78;;;;;;;20.99;61.49;99477.00;5015059;28;20029;-87
2022/06/07 01:59:26;;;;;;;10.52;5.88;;;;;;;20.24;61.19;99362.94;5013841;28;20026;-87
2022/06/07 02:01:52;;;;;;;11.00;6.43;;;;;;;21.00;61.21;99492.88;5014973;28;20026;-87
2022/06/07 02:04:20;;;;;;;10.63;6.18;;;;;;;19.71;61.04;99288.38;5013896;28;20057;-88
2022/06/07 02:06:46;;;;;;;10.40;6.20;;;;;;;20.20;61.03;99402.81;5013763;28;20032;-87
2022/06/07 02:09:11;;;;;;;13.63;7.95;;;;;;;20.26;61.27;99380.41;5014678;28;20030;-87
2022/06/07 02:11:38;;;;;;;12.20;6.70;;;;;;;20.77;61.36;99480.44;5029966;28;20072;-87
2022/06/07 02:14:05;;;;;;;8.50;5.97;;;;;;;20.79;61.27;99486.34;5030131;28;20396;-87
2022/06/07 02:16:31;;;;;;;11.73;6.32;;;;;;;20.85;61.51;99482.72;5014976;28;20068;-87
2022/06/07 02:18:56;;;;;;;10.50;6.50;;;;;;;20.45;61.34;99420.38;5014616;28;20025;-87
2022/06/07 02:21:23;;;;;;;12.55;6.63;;;;;;;20.65;61.12;99458.25;5029990;28;20033;-88
2022/06/07 02:23:49;;;;;;;9.10;6.10;;;;;;;20.53;61.14;99461.03;5029782;28;20025;-87
2022/06/07 02:26:32;;;;;;;11.63;6.30;;;;;;;20.85;61.30;99490.78;5029961;28;20037;-88
2022/06/07 02:29:06;;;;;;;10.70;6.20;;;;;;;20.10;61.21;99372.38;5029862;28;20034;-88
2022/06/07 02:31:34;;;;;;;10.55;6.15;;;;;;;20.76;61.26;99488.72;5014553;28;20079;-87
2022/06/07 02:34:01;;;;;;;10.35;5.93;;;;;;;20.19;61.21;99403.88;5014360;28;20057;-87
2022/06/07 02:36:31;;;;;;;10.10;6.53;;;;;;;20.47;60.89;99431.69;5014608;28;20438;-87
2022/06/07 02:38:57;;;;;;;15.32;6.32;;;;;;;20.00;61.15;99355.03;5014416;28;20021;-87
2022/06/07 02:41:26;;;;;;;9.80;5.55;;;;;;;20.38;61.18;99411.66;5029693;28;20491;-87
2022/06/07 02:43:53;;;;;;;15.25;6.05;;;;;;;20.61;60.75;99459.78;5014524;28;20499;-87
2022/06/07 02:46:18;;;;;;;13.35;5.93;;;;;;;20.67;60.92;99461.50;5014244;28;20503;-87
2022/06/07 02:48:44;;;;;;;10.10;5.75;;;;;;;20.69;60.72;99463.94;5014102;28;20057;-87
2022/06/07 02:51:09;;;;;;;12.68;6.55;;;;;;;19.92;60.66;99352.75;5029697;28;20479;-87
2022/06/07 02:53:35;;;;;;;8.05;5.40;;;;;;;20.52;60.60;99445.16;5014588;28;20033;-87
2022/06/07 02:56:00;;;;;;;8.93;5.55;;;;;;;20.40;60.05;99415.75;5012950;28;20060;-87
2022/06/07 02:58:26;;;;;;;5.55;5.00;;;;;;;20.54;59.77;99424.28;5029572;28;20061;-87
2022/06/07 03:00:52;;;;;;;6.75;5.40;;;;;;;20.51;59.33;99400.63;5029059;28;20067;-87
2022/06/07 03:03:17;;;;;;;6.97;4.88;;;;;;;20.91;58.97;99470.19;5029480;28;20030;-88
2022/06/07 03:05:43;;;;;;;5.70;4.43;;;;;;;20.57;58.21;99423.78;5013903;28;20407;-88
2022/06/07 03:08:09;;;;;;;6.88;4.40;;;;;;;21.06;58.07;99494.56;5029381;28;20030;-87
2022/06/07 03:10:35;;;;;;;4.15;3.53;;;;;;;21.11;57.19;99496.50;5012618;28;20442;-87
2022/06/07 03:13:00;;;;;;;4.15;3.67;;;;;;;20.07;57.01;99340.69;5029091;28;20034;-87
2022/06/07 03:15:26;;;;;;;4.60;3.60;;;;;;;20.38;56.57;99388.34;5048105;28;20032;-87
2022/06/07 03:17:51;;;;;;;7.03;3.45;;;;;;;20.76;56.19;99443.91;5049315;28;20065;-88
2022/06/07 03:20:17;;;;;;;7.07;3.20;;;;;;;21.13;55.79;99471.03;5033167;28;20025;-87
2022/06/07 03:22:43;;;;;;;3.50;3.10;;;;;;;21.29;55.41;99501.59;5049040;28;20025;-87
2022/06/07 03:25:10;;;;;;;4.45;3.05;;;;;;;21.40;54.65;99494.50;5048149;28;20036;-87
2022/06/07 03:27:38;;;;;;;5.85;3.13;;;;;;;21.38;54.21;99494.75;5031124;28;20034;-87
2022/06/07 03:30:07;;;;;;;4.10;2.58;;;;;;;21.25;54.07;99474.44;5015184;28;20022;-87
2022/06/07 03:32:33;;;;;;;7.22;3.67;;;;;;;21.08;54.08;99465.59;5012354;28;20434;-87
2022/06/07 03:34:59;;;;;;;5.93;3.67;;;;;;;21.29;53.54;99482.00;5028374;28;20487;-88
2022/06/07 03:37:24;;;;;;;4.35;3.10;;;;;;;20.63;53.63;99386.06;5028313;28;20041;-87
2022/06/07 03:39:51;;;;;;;4.80;3.17;;;;;;;20.56;53.06;99382.75;5013103;28;20465;-87
2022/06/07 03:42:17;;;;;;;6.78;3.00;;;;;;;20.70;53.41;99418.06;5011742;28;20026;-87
2022/06/07 03:44:45;;;;;;;5.35;2.90;;;;;;;20.71;52.86;99438.47;5028194;28;20088;-87
2022/06/07 03:47:10;;;;;;;5.63;2.80;;;;;;;20.93;52.75;99460.84;5011556;28;20033;-87
2022/06/07 03:49:36;;;;;;;6.80;2.72;;;;;;;20.76;52.73;99403.66;5028100;28;20026;-87
2022/06/07 03:52:01;;;;;;;9.02;3.28;;;;;;;20.63;53.06;99391.41;5027929;28;20487;-87
2022/06/07 03:54:27;;;;;;;9.63;4.20;;;;;;;20.81;54.15;99440.53;5027797;28;20041;-87
2022/06/07 03:56:53;;;;;;;7.70;4.40;;;;;;;21.03;54.51;99499.59;5011333;28;20026;-87
2022/06/07 03:59:18;;;;;;;11.18;4.32;;;;;;;20.36;55.21;99400.38;5012684;28;20097;-88
2022/06/07 04:01:43;;;;;;;10.07;4.53;;;;;;;20.07;55.55;99408.50;5011532;28;20036;-87
2022/06/07 04:04:10;;;;;;;5.65;4.22;;;;;;;20.83;55.87;99516.22;5028134;28;20022;-87
2022/06/07 04:08:10;;;;;;;7.47;3.95;;;;;;;20.25;56.13;99458.38;5027941;28;20068;-87
2022/06/07 04:09:27;;;;;;;;;;;;;;;20.47;56.41;99522.88;5012947;28;20033;-87
2022/06/07 04:11:52;;;;;;;5.72;3.30;;;;;;;19.79;56.15;99395.13;5027109;28;19917;-87
2022/06/07 04:14:18;;;;;;;6.13;4.20;;;;;;;19.74;56.48;99409.25;5011475;28;20191;-88
2022/06/07 04:16:43;;;;;;;7.13;3.33;;;;;;;20.59;56.20;99551.25;5011458;28;20494;-87
2022/06/07 04:19:08;;;;;;;5.82;3.60;;;;;;;20.33;56.21;99495.53;5027726;28;20030;-88
2022/06/07 04:21:34;;;;;;;7.80;3.58;;;;;;;20.23;56.03;99468.53;5027577;28;20144;-87
2022/06/07 04:23:59;;;;;;;4.53;3.17;;;;;;;19.82;55.65;99405.38;5027755;28;20026;-87
2022/06/07 04:26:27;;;;;;;7.35;3.90;;;;;;;20.39;55.59;99510.69;5011213;28;20022;-87
2022/06/07 04:28:52;;;;;;;10.02;3.42;;;;;;;19.90;55.39;99410.34;5027624;28;20029;-87
2022/06/07 04:31:20;;;;;;;6.38;3.13;;;;;;;20.71;54.71;99529.72;5012445;28;20036;-87
2022/06/07 04:33:47;;;;;;;5.68;3.03;;;;;;;20.14;54.49;99435.97;5012363;28;20037;-88
2022/06/07 04:36:16;;;;;;;3.47;2.83;;;;;;;19.77;54.55;99363.22;5012317;28;20507;-87
2022/06/07 04:38:42;;;;;;;7.95;3.33;;;;;;;20.72;54.14;99484.91;5012217;28;20181;-87
2022/06/07 04:41:13;;;;;;;5.28;3.10;;;;;;;20.90;53.77;99517.69;5012300;28;20116;-87
2022/06/07 04:43:39;;;;;;;4.75;3.08;;;;;;;20.09;54.14;99390.31;5011972;28;20057;-87
2022/06/07 04:46:08;;;;;;;3.47;3.17;;;;;;;20.35;53.86;99426.38;5027626;28;20030;-88
2022/06/07 04:48:34;;;;;;;4.30;3.30;;;;;;;20.98;54.05;99524.50;5011024;28;20091;-88
2022/06/07 04:51:11;;;;;;;4.18;3.55;;;;;;;20.93;53.69;99525.25;5027496;28;20479;-87
2022/06/07 04:53:36;;;;;;;5.13;3.35;;;;;;;20.32;53.81;99418.81;5027863;28;20026;-87
2022/06/07 04:56:13;;;;;;;4.72;3.25;;;;;;;20.57;53.51;99448.75;5027275;28;20050;-87
2022/06/07 04:58:38;;;;;;;5.28;3.17;;;;;;;21.05;53.18;99511.72;5027151;28;20030;-87
2022/06/07 05:01:20;;;;;;;3.70;3.08;;;;;;;21.05;52.67;99524.34;5010908;28;20029;-87
2022/06/07 05:03:45;;;;;;;5.32;3.08;;;;;;;20.31;53.05;99428.72;5010663;28;20112;-87
2022/06/07 05:06:17;;;;;;;5.38;2.88;;;;;;;20.28;52.95;99410.47;5027515;28;20025;-88
2022/06/07 05:08:42;;;;;;;;;;;;;;;21.14;53.21;99549.69;5028059;28;20527;-87
2022/06/07 05:11:08;;;;;;;4.28;2.80;;;;;;;21.18;52.99;99542.78;5027346;28;19909;-87
2022/06/07 05:13:33;;;;;;;4.55;3.20;;;;;;;20.86;52.75;99462.88;5012097;28;20494;-87
2022/06/07 05:15:58;;;;;;;7.65;4.43;;;;;;;21.19;52.33;99526.41;5010710;28;20030;-88
2022/06/07 05:18:24;;;;;;;6.03;2.80;;;;;;;20.93;51.83;99468.88;5027268;28;20040;-88
2022/06/07 05:20:50;;;;;;;4.32;2.38;;;;;;;21.25;51.17;99536.19;5010277;28;20029;-87
2022/06/07 05:23:15;;;;;;;4.03;2.47;;;;;;;20.53;50.54;99395.84;5011221;28;20035;-87
2022/06/07 05:25:51;;;;;;;5.13;3.30;;;;;;;20.85;50.48;99422.88;5014574;28;20026;-87
2022/06/07 05:28:16;;;;;;;3.60;2.63;;;;;;;20.80;50.08;99449.59;5014217;28;20115;-88
2022/06/07 05:30:41;;;;;;;4.40;2.30;;;;;;;21.23;49.73;99484.63;5015589;28;20487;-87
2022/06/07 05:33:07;;;;;;;4.03;2.40;;;;;;;21.14;49.68;99461.91;5014321;28;20515;-87
2022/06/07 05:35:32;;;;;;;3.97;2.60;;;;;;;21.11;49.37;99450.84;5017375;28;20168;-87
2022/06/07 05:37:58;;;;;;;5.22;2.88;;;;;;;21.31;49.02;99448.47;5034548;28;20026;-89
2022/06/07 05:40:23;;;;;;;5.05;3.65;;;;;;;21.25;48.56;99457.50;5035128;28;20017;-87
2022/06/07 05:42:49;;;;;;;3.60;2.80;;;;;;;21.92;48.36;99553.16;5016649;28;20022;-89
2022/06/07 05:45:14;;;;;;;2.65;2.45;;;;;;;21.92;48.14;99550.47;5015346;28;20049;-87
2022/06/07 05:47:41;;;;;;;2.67;2.40;;;;;;;21.24;48.51;99434.41;5034204;28;20538;-89
2022/06/07 05:50:09;;;;;;;3.58;2.75;;;;;;;20.93;48.04;99400.97;5041323;28;20038;-87
2022/06/07 05:52:36;;;;;;;5.25;3.35;;;;;;;21.28;47.81;99459.69;5039776;28;20034;-89
2022/06/07 05:55:05;;;;;;;4.03;2.60;;;;;;;21.23;47.67;99432.78;5037192;28;20053;-88
2022/06/07 05:57:31;;;;;;;4.25;2.40;;;;;;;21.69;47.47;99512.06;5032779;28;20021;-87
2022/06/07 05:59:57;;;;;;;3.78;2.33;;;;;;;21.28;47.46;99437.41;5034105;28;20088;-87
2022/06/07 06:02:22;;;;;;;5.68;2.70;;;;;;;21.87;47.77;99535.91;5031771;28;20431;-87
2022/06/07 06:04:47;;;;;;;7.38;2.65;;;;;;;22.08;47.60;99558.50;5014881;28;20422;-86
2022/06/07 06:07:13;;;;;;;6.45;2.67;;;;;;;21.78;47.84;99491.75;5035773;28;20033;-86
2022/06/07 06:12:22;;;;;;;4.93;3.22;;;;;;;22.44;47.66;99556.19;5034390;28;20067;-87
2022/06/07 06:14:48;;;;;;;3.47;2.50;;;;;;;21.81;47.70;99432.09;5034725;28;20465;-87
2022/06/07 06:17:13;;;;;;;4.97;2.72;;;;;;;21.98;47.53;99475.00;5040600;28;20093;-89
2022/06/07 06:19:39;;;;;;;2.70;2.20;;;;;;;21.95;47.80;99439.75;5034960;28;20028;-88
2022/06/07 06:22:05;;;;;;;5.35;3.10;;;;;;;22.66;47.68;99564.19;5023009;28;20414;-88
2022/06/07 06:24:31;;;;;;;4.85;3.40;;;;;;;22.72;47.67;99534.34;5024430;28;20036;-87
2022/06/07 06:26:57;;;;;;;4.75;3.42;;;;;;;21.99;47.30;99416.66;5033220;28;20033;-88
2022/06/07 06:29:23;;;;;;;3.03;2.53;;;;;;;22.22;47.17;99450.50;5031252;28;20034;-88
2022/06/07 06:31:50;;;;;;;2.50;2.30;;;;;;;22.34;46.84;99470.00;5029762;28;20026;-89
2022/06/07 06:34:15;;;;;;;5.47;2.78;;;;;;;22.29;46.75;99448.41;5014290;28;20025;-88
2022/06/07 06:36:41;;;;;;;7.15;3.05;;;;;;;21.50;45.91;99353.03;5013989;28;20064;-88
2022/06/07 06:39:07;;;;;;;2.65;2.45;;;;;;;22.26;45.97;99455.13;5025355;28;20422;-88
2022/06/07 06:41:33;;;;;;;4.63;2.13;;;;;;;22.12;46.17;99409.03;5035974;28;20510;-88
2022/06/07 06:44:01;;;;;;;5.25;2.60;;;;;;;22.90;45.71;99526.97;5036684;28;20029;-87
2022/06/07 06:46:35;;;;;;;4.47;2.47;;;;;;;22.42;45.64;99445.31;5022601;28;20030;-88
2022/06/07 06:49:03;;;;;;;3.13;2.80;;;;;;;22.74;45.44;99520.63;5017340;28;20025;-88
2022/06/07 06:51:29;;;;;;;3.40;2.17;;;;;;;22.88;45.19;99524.53;5032868;28;20040;-88
2022/06/07 06:53:59;;;;;;;3.58;2.35;;;;;;;22.35;45.23;99445.53;5036424;28;20120;-88
2022/06/07 06:56:26;;;;;;;5.22;3.40;;;;;;;22.87;45.65;99500.56;5040944;28;20592;-88
2022/06/07 06:58:52;;;;;;;10.20;8.05;;;;;;;22.66;45.50;99468.09;5034308;28;20025;-87
2022/06/07 07:01:27;;;;;;;4.85;3.88;;;;;;;23.21;45.16;99539.59;5052317;28;20177;-87
2022/06/07 07:03:53;;;;;;;4.13;3.28;;;;;;;23.12;45.45;99516.91;5022207;28;20026;-89
2022/06/07 07:06:19;;;;;;;5.88;5.20;;;;;;;23.14;45.56;99533.63;5031636;28;20544;-87
2022/06/07 07:08:46;;;;;;;4.85;3.35;;;;;;;23.11;45.51;99512.59;5040323;28;20037;-88
2022/06/07 07:11:17;;;;;;;7.85;3.80;;;;;;;23.39;45.56;99538.34;5012203;28;20009;-88
2022/06/07 07:13:43;;;;;;;;;;;;;;;23.31;44.80;99534.25;5029168;28;20084;-88
2022/06/07 07:16:11;;;;;;;4.40;3.22;;;;;;;23.51;45.65;99541.63;5028846;28;19917;-88
2022/06/07 07:18:37;;;;;;;5.20;3.25;;;;;;;23.02;45.27;99436.03;5019423;28;20029;-87
2022/06/07 07:21:05;;;;;;;7.07;3.10;;;;;;;23.60;45.04;99509.63;5056859;28;20492;-86
2022/06/07 07:23:31;;;;;;;5.65;2.75;;;;;;;23.50;44.64;99493.38;5045830;28;20554;-85
2022/06/07 07:26:09;;;;;;;4.00;3.05;;;;;;;23.82;44.79;99544.50;5030561;28;20021;-86
2022/06/07 07:28:35;;;;;;;5.38;2.60;;;;;;;23.53;44.56;99504.44;5013939;28;20034;-86
2022/06/07 07:31:03;;;;;;;5.20;4.30;;;;;;;23.20;44.93;99454.47;5019868;28;20029;-86
2022/06/07 07:33:29;;;;;;;4.75;2.75;;;;;;;23.74;44.55;99548.47;5020682;28;20029;-87
2022/06/07 07:35:55;;;;;;;5.30;3.00;;;;;;;23.72;44.59;99545.25;5033923;28;20030;-86
2022/06/07 07:38:20;;;;;;;3.47;2.58;;;;;;;23.84;44.83;99528.88;5020331;28;20021;-86
2022/06/07 07:40:46;;;;;;;5.07;4.32;;;;;;;23.42;44.71;99454.28;5015775;28;20120;-85
2022/06/07 07:43:13;;;;;;;4.65;3.30;;;;;;;24.04;44.12;99523.53;5034588;28;20529;-85
2022/06/07 07:45:38;;;;;;;4.13;3.47;;;;;;;24.13;43.46;99521.91;5034462;28;20550;-85
2022/06/07 07:48:04;;;;;;;2.88;2.35;;;;;;;23.19;43.30;99355.88;5012250;28;20057;-84
2022/06/07 07:50:30;;;;;;;4.07;2.20;;;;;;;23.23;42.63;99351.56;5030503;28;20475;-87
2022/06/07 07:52:59;;;;;;;4.75;3.15;;;;;;;23.89;42.33;99434.50;5012220;28;20025;-84
2022/06/07 07:55:25;;;;;;;2.47;1.88;;;;;;;23.86;42.27;99438.53;5022606;28;20136;-84
2022/06/07 07:57:50;;;;;;;3.72;2.10;;;;;;;23.98;41.87;99433.69;5048855;28;20040;-84
2022/06/07 08:00:16;;;;;;;5.13;2.83;;;;;;;24.23;41.65;99448.28;5029727;28;20025;-84
2022/06/07 08:02:42;;;;;;;7.22;3.83;;;;;;;24.22;41.62;99469.06;5027730;28;20029;-84
2022/06/07 08:05:08;;;;;;;4.90;4.45;;;;;;;24.60;41.58;99502.03;5063266;28;20091;-87
2022/06/07 08:07:33;;;;;;;6.68;5.20;;;;;;;24.25;41.64;99443.41;5031795;28;20031;-86
2022/06/07 08:10:04;;;;;;;3.47;2.35;;;;;;;24.27;41.23;99417.00;5029452;28;20013;-86
2022/06/07 08:12:31;;;;;;;4.07;3.77;;;;;;;24.35;41.05;99419.16;5045480;28;20080;-86
2022/06/07 08:14:58;;;;;;;5.70;2.67;;;;;;;24.21;41.14;99372.19;5025562;28;20796;-84
2022/06/07 08:17:24;;;;;;;3.00;2.00;;;;;;;24.42;40.63;99400.81;5032294;28;20034;-84
2022/06/07 08:19:49;;;;;;;2.70;2.00;;;;;;;25.12;40.20;99468.47;5011850;28;20080;-87
2022/06/07 08:22:15;;;;;;;4.10;3.15;;;;;;;25.39;40.13;99492.47;5015199;28;20034;-85
2022/06/07 08:24:40;;;;;;;11.45;9.80;;;;;;;24.19;40.21;99259.16;5015835;28;20029;-84
2022/06/07 08:27:06;;;;;;;2.50;2.30;;;;;;;24.58;39.69;99347.63;5030389;28;20030;-84
2022/06/07 08:29:31;;;;;;;2.78;2.15;;;;;;;24.95;39.77;99406.63;5011914;28;20476;-84
2022/06/07 08:31:56;;;;;;;3.92;3.30;;;;;;;24.90;40.22;99403.97;5020345;28;20456;-84
2022/06/07 08:39:50;;;;;;;4.18;2.90;;;;;;;25.29;40.37;99487.91;5013740;28;20048;-84
2022/06/07 08:42:35;;;;;;;4.18;3.63;;;;;;;24.62;40.60;99376.50;5023516;28;20033;-86
2022/06/07 08:45:23;;;;;;;4.20;3.50;;;;;;;25.14;40.81;99426.59;5021971;28;20036;-85
2022/06/07 08:47:55;;;;;;;3.83;2.70;;;;;;;25.04;40.47;99380.69;5021863;28;20116;-85
2022/06/07 08:50:35;;;;;;;4.32;2.55;;;;;;;25.83;39.59;99469.00;5018614;28;20048;-85
2022/06/07 08:53:09;;;;;;;3.67;2.30;;;;;;;25.96;39.02;99478.41;5021963;28;20107;-85
2022/06/07 08:55:42;;;;;;;3.63;2.40;;;;;;;26.11;39.29;99462.09;5020832;28;20049;-84
2022/06/07 08:58:22;;;;;;;3.15;2.10;;;;;;;26.34;39.09;99454.34;5039785;28;20100;-86
2022/06/07 09:00:56;;;;;;;2.88;2.47;;;;;;;26.22;38.27;99420.31;5021475;28;20045;-84
2022/06/07 09:03:28;;;;;;;2.85;2.10;;;;;;;26.68;38.35;99459.72;5028881;28;20436;-84
2022/06/07 09:05:56;;;;;;;3.92;1.95;;;;;;;26.88;38.03;99454.13;5037607;28;20033;-84
2022/06/07 09:08:49;;;;;;;5.70;4.38;;;;;;;26.84;38.29;99453.09;5022365;28;20558;-85
2022/06/07 09:14:07;;;;;;;6.20;3.65;;;;;;;26.11;38.11;99342.22;5011481;28;20111;-84
2022/06/07 09:16:38;;;;;;;2.47;2.28;;;;;;;26.23;37.43;99351.56;5035098;28;20463;-84
2022/06/07 09:19:10;;;;;;;5.60;2.30;;;;;;;27.04;37.05;99443.97;5050479;28;20028;-84
2022/06/07 09:21:39;;;;;;;3.17;2.20;;;;;;;27.07;36.83;99435.25;5047630;28;20026;-83
2022/06/07 09:24:25;;;;;;;3.67;1.90;;;;;;;27.47;36.37;99447.50;5033485;28;20036;-83
2022/06/07 09:26:51;;;;;;;3.70;3.40;;;;;;;27.53;36.32;99402.97;5025374;28;20022;-86
2022/06/07 09:29:18;;;;;;;2.63;1.88;;;;;;;27.96;35.02;99428.13;5029929;28;20028;-85
2022/06/07 09:31:46;;;;;;;7.20;3.75;;;;;;;27.73;35.09;99359.28;5034121;28;20498;-84
2022/06/07 09:34:26;;;;;;;2.08;1.98;;;;;;;27.69;34.65;99311.34;5025284;28;20034;-84
2022/06/07 09:37:04;;;;;;;2.47;2.28;;;;;;;28.51;34.09;99393.03;5023934;28;20065;-84
2022/06/07 09:39:34;;;;;;;2.05;1.90;;;;;;;28.32;34.07;99343.41;5011973;28;20466;-84
2022/06/07 09:42:09;;;;;;;3.88;1.73;;;;;;;28.83;33.83;99362.25;5010870;28;20053;-84
2022/06/07 09:44:38;;;;;;;2.03;1.75;;;;;;;29.40;33.50;99436.97;5039753;28;20049;-84
2022/06/07 09:47:19;;;;;;;2.15;1.70;;;;;;;29.08;33.05;99397.13;5029524;28;20025;-84
2022/06/07 09:50:16;;;;;;;2.92;1.52;;;;;;;29.22;32.54;99382.72;5024355;28;20033;-84
2022/06/07 09:52:45;;;;;;;2.40;2.20;;;;;;;28.95;32.65;99324.53;5015234;28;20073;-84
2022/06/07 09:55:16;;;;;;;3.60;2.70;;;;;;;29.55;32.18;99394.25;5035300;28;20127;-84
2022/06/07 09:57:50;;;;;;;4.63;1.98;;;;;;;29.53;31.88;99323.00;5050252;28;20033;-85
2022/06/07 10:00:30;;;;;;;2.97;1.83;;;;;;;30.06;31.57;99393.91;5055961;28;20103;-84
2022/06/07 10:03:13;;;;;;;2.40;1.67;;;;;;;30.24;30.42;99371.09;5038517;28;20068;-84
2022/06/07 10:05:39;;;;;;;2.17;1.98;;;;;;;29.72;31.04;99301.84;5048934;28;20053;-85
2022/06/07 10:08:13;;;;;;;3.20;2.15;;;;;;;30.35;31.19;99372.44;5048778;28;20768;-85
2022/06/07 10:10:52;;;;;;;2.85;2.10;;;;;;;29.88;31.06;99337.69;5050409;28;20528;-85
2022/06/07 10:13:23;;;;;;;3.00;2.55;;;;;;;30.03;31.84;99364.56;5052829;28;20025;-85
2022/06/07 10:16:04;;;;;;;2.95;1.90;;;;;;;30.40;30.75;99354.34;5033666;28;20489;-84
2022/06/07 10:18:39;;;;;;;3.05;1.88;;;;;;;30.46;30.12;99353.91;5034987;28;20032;-84
2022/06/07 10:21:35;;;;;;;3.50;2.90;;;;;;;29.29;30.90;99247.13;5040494;28;20025;-83
2022/06/07 10:24:08;;;;;;;2.03;1.83;;;;;;;29.00;31.72;99256.47;5038813;28;20033;-85
2022/06/07 10:26:46;;;;;;;3.42;3.13;;;;;;;29.42;31.97;99347.69;5040618;28;20510;-84
2022/06/07 10:29:23;;;;;;;3.50;3.20;;;;;;;29.64;32.03;99344.22;5037610;28;20029;-84
2022/06/07 10:32:01;;;;;;;2.60;2.00;;;;;;;29.00;31.81;99291.81;5053862;28;20017;-84
2022/06/07 10:34:50;;;;;;;2.33;1.98;;;;;;;29.12;32.05;99334.78;5043773;28;20017;-84
2022/06/07 10:37:44;;;;;;;3.50;3.20;;;;;;;29.14;32.40;99340.72;5053396;28;20029;-84
2022/06/07 10:40:21;;;;;;;3.58;2.17;;;;;;;29.57;31.58;99332.16;5036695;28;20037;-84
2022/06/07 10:43:10;;;;;;;2.00;1.90;;;;;;;29.52;31.72;99333.09;5041491;28;20108;-84
2022/06/07 10:45:38;;;;;;;4.03;2.53;;;;;;;29.16;32.03;99277.88;5038663;28;20112;-83
2022/06/07 10:48:13;;;;;;;5.63;2.88;;;;;;;29.40;32.48;99330.06;5043723;28;20025;-82
2022/06/07 10:50:47;;;;;;;3.95;2.80;;;;;;;28.62;32.52;99227.94;5032310;28;20418;-83
2022/06/07 10:53:22;;;;;;;2.78;2.58;;;;;;;28.34;33.36;99246.97;5032268;28;20477;-85
2022/06/07 10:55:47;;;;;;;4.15;3.22;;;;;;;28.91;33.23;99320.81;5042705;28;20081;-85
2022/06/07 10:58:31;;;;;;;4.28;3.88;;;;;;;28.95;33.37;99331.88;5033416;28;20576;-85
2022/06/07 11:01:14;;;;;;;2.58;2.38;;;;;;;28.77;32.89;99300.97;5042182;28;20055;-85
2022/06/07 11:10:07;;;;;;;2.42;2.22;;;;;;;28.82;31.94;99265.53;5006658;28;20032;-85
2022/06/07 11:12:52;;;;;;;7.05;6.13;;;;;;;29.02;32.02;99316.78;5033123;28;20044;-85
2022/06/07 11:15:23;;;;;;;3.08;2.63;;;;;;;28.80;31.85;99312.03;5042912;28;20033;-84
2022/06/07 11:18:04;;;;;;;2.53;2.33;;;;;;;28.46;31.57;99290.72;5052666;28;20032;-84
2022/06/07 11:20:31;;;;;;;2.58;1.92;;;;;;;28.22;32.55;99278.38;5039667;28;20045;-82
2022/06/07 11:23:24;;;;;;;3.95;2.80;;;;;;;28.07;32.32;99234.13;5041095;28;20040;-83
2022/06/07 11:26:14;;;;;;;4.45;2.42;;;;;;;28.58;31.94;99245.94;5030903;28;20395;-83
2022/06/07 11:28:39;;;;;;;3.65;2.60;;;;;;;29.05;31.99;99296.34;5033296;28;20586;-85
2022/06/07 11:31:23;;;;;;;3.75;3.22;;;;;;;29.72;31.22;99294.50;5044179;28;20156;-85
2022/06/07 11:33:51;;;;;;;2.20;1.70;;;;;;;30.10;30.15;99285.16;5033688;28;20044;-83
2022/06/07 11:36:20;;;;;;;2.85;2.53;;;;;;;30.16;30.49;99283.91;5032818;28;20040;-83
2022/06/07 11:38:57;;;;;;;1.90;1.80;;;;;;;30.03;30.57;99280.97;5034415;28;20037;-83
2022/06/07 11:41:37;;;;;;;3.33;2.83;;;;;;;29.85;29.96;99283.88;5049050;28;20174;-83
2022/06/07 11:44:11;;;;;;;3.50;2.23;;;;;;;29.77;30.18;99282.72;5038194;28;20021;-84
2022/06/07 11:46:57;;;;;;;3.28;2.17;;;;;;;29.72;30.43;99274.66;5040938;28;20063;-84
2022/06/07 11:49:26;;;;;;;3.00;2.70;;;;;;;30.02;30.98;99275.84;5032349;28;20026;-85
2022/06/07 11:52:13;;;;;;;3.38;1.83;;;;;;;30.53;29.71;99266.28;5032399;28;20026;-84
2022/06/07 11:54:45;;;;;;;4.40;2.22;;;;;;;30.07;29.88;99117.78;5030275;28;20057;-84
2022/06/07 11:57:26;;;;;;;3.38;2.00;;;;;;;31.35;29.43;99278.31;5037544;28;20083;-84
2022/06/07 11:59:56;;;;;;;2.60;2.13;;;;;;;31.26;29.29;99268.22;5054466;28;20438;-84
2022/06/07 12:02:32;;;;;;;6.07;5.00;;;;;;;31.59;28.58;99265.78;5042803;28;20033;-82
2022/06/07 12:05:36;;;;;;;2.53;2.17;;;;;;;31.83;28.47;99264.47;5045767;28;20494;-85
2022/06/07 12:08:23;;;;;;;5.65;4.75;;;;;;;32.06;27.86;99251.41;5024447;28;20040;-85